Istres, France

1:01 PM CEST on March 26, 2017 (GMT +0200)
Le Tube Air Base

Weather History for LFMI - March, 2014

Change the Weather History Date:

Thursday, March 27, 2014

  Actual Average (LFML) Record (LFML)
Temperature  
Mean Temperature 50 °F -  
Max Temperature 63 °F 62 °F 73 °F (2012)
Min Temperature 38 °F 44 °F 37 °F (2002)
Degree Days  
Heating Degree Days 14    
Moisture  
Dew Point 34 °F    
Average Humidity 51    
Maximum Humidity 81    
Minimum Humidity 18    
Precipitation  
Precipitation 0.00 in - - ()
Sea Level Pressure  
Sea Level Pressure 29.77 in    
Wind  
Wind Speed 8 mph ()    
Max Wind Speed 17 mph    
Max Gust Speed -    
Visibility 6.8 miles    
Events      
Averages and records for this station are not official NWS values.
T = Trace of Precipitation, MM = Missing Value Source: Averaged Metar Reports

Daily Weather History Graph

Daily Weather History Graph

Search for Another Location

Airport or City:

Trip Planner

Search our weather history database for the weather conditions in past years. The results will help you decide how hot, cold, wet, or windy it might be!

Date:

Astronomy

Mar. 27, 2014 Rise Set
Actual Time 6:31 AM CET 7:00 PM CET
Civil Twilight 6:02 AM CET 7:29 PM CET
Nautical Twilight 5:28 AM CET 8:03 PM CET
Astronomical Twilight 4:53 AM CET 8:38 PM CET
Moon 4:18 AM CET (3/27) 3:24 PM CET (3/27)
Length of Visible Light 13h 26m
Length of Day
12h 29m
Waning Crescent, 15% of the Moon is Illuminated
Mar 27
Waning Crescent
Mar 30
New
Apr 7
First Quarter
Apr 15
Full
Apr 22
Last Quarter

Hourly Weather History & Observations

Time (CET) Temp. Windchill Dew Point Humidity Pressure Visibility Wind Dir Wind Speed Gust Speed Precip Events Conditions
12:00 AM 47 °F - 33 °F 46% 29.79 in 31 mi North 6.9 mph - -   Clear
12:00 AM 46.4 °F 42.9 °F 32.0 °F 57% 29.77 in 6.2 mi North 6.9 mph - N/A   Unknown
12:30 AM 46.4 °F 43.5 °F 32.0 °F 57% 29.77 in 6.2 mi North 5.8 mph - N/A   Unknown
1:00 AM 47 °F - 30 °F 38% 29.78 in 34 mi North 6.9 mph - -   Clear
1:00 AM 48.2 °F - 30.2 °F 50% 29.77 in 6.2 mi North 6.9 mph - N/A   Unknown
1:30 AM 46.4 °F 42.4 °F 32.0 °F 57% 29.77 in 6.2 mi North 8.1 mph - N/A   Unknown
2:00 AM 46 °F - 30 °F 41% 29.78 in 31 mi North 6.9 mph - -   Clear
2:00 AM 46.4 °F 42.9 °F 30.2 °F 53% 29.77 in 6.2 mi North 6.9 mph - N/A   Unknown
2:30 AM 46.4 °F 43.5 °F 30.2 °F 53% 29.77 in 6.2 mi NNW 5.8 mph - N/A   Unknown
3:00 AM 43 °F - 33 °F 57% 29.78 in 28 mi NNW 5.8 mph - -   Clear
3:00 AM 42.8 °F 39.3 °F 32.0 °F 66% 29.77 in 6.2 mi NNW 5.8 mph - N/A   Unknown
3:30 AM 42.8 °F 39.3 °F 32.0 °F 66% 29.77 in 6.2 mi NNW 5.8 mph - N/A   Unknown
4:00 AM 43 °F - 32 °F 54% 29.77 in 25 mi NW 5.8 mph - -   Clear
4:00 AM 42.8 °F 39.3 °F 32.0 °F 66% 29.77 in 6.2 mi NW 5.8 mph - N/A   Unknown
4:30 AM 42.8 °F 39.3 °F 32.0 °F 66% 29.74 in 6.2 mi NNW 5.8 mph - N/A   Unknown
5:00 AM 42 °F - 30 °F 52% 29.77 in 22 mi North 3.5 mph - -   Clear
5:00 AM 42.8 °F 41.1 °F 30.2 °F 61% 29.77 in 6.2 mi Variable 3.5 mph - N/A   Unknown
5:30 AM 41.0 °F 37.1 °F 30.2 °F 65% 29.74 in 6.2 mi NNW 5.8 mph - N/A   Unknown
6:00 AM 43 °F - 30 °F 49% 29.76 in 31 mi NNW 8.1 mph - -   Clear
6:00 AM 42.8 °F 38.0 °F 30.2 °F 61% 29.74 in 6.2 mi NNW 8.1 mph - N/A   Unknown
6:30 AM 41.0 °F 35.8 °F 30.2 °F 65% 29.74 in 6.2 mi NNW 8.1 mph - N/A   Unknown
7:00 AM 39 °F - 32 °F 67% 29.77 in 12 mi NW 6.9 mph - -   Clear
7:00 AM 39.2 °F 34.2 °F 32.0 °F 75% 29.77 in 6.2 mi NW 6.9 mph - N/A   Unknown
7:30 AM 39.2 °F 34.2 °F 32.0 °F 75% 29.77 in 6.2 mi NW 6.9 mph - N/A   Unknown
8:00 AM 44 °F - 33 °F 56% 29.78 in 22 mi NW 8.1 mph - -   Clear
8:00 AM 44.6 °F 40.2 °F 33.8 °F 66% 29.77 in 6.2 mi NW 8.1 mph - N/A   Unknown
8:30 AM 46.4 °F 41.1 °F 33.8 °F 62% 29.77 in 6.2 mi NW 11.5 mph - N/A   Unknown
9:00 AM 48 °F - 33 °F 44% 29.78 in 12 mi NW 12.7 mph - -   Clear
9:00 AM 48.2 °F - 33.8 °F 58% 29.77 in 6.2 mi NW 12.7 mph - N/A   Unknown
9:30 AM 50.0 °F - 33.8 °F 54% 29.77 in 6.2 mi NNW 15.0 mph - N/A   Unknown
10:00 AM 51 °F - 34 °F 40% 29.78 in 11 mi NNW 15.0 mph - -   Clear
10:00 AM 51.8 °F - 33.8 °F 50% 29.77 in 6.2 mi NNW 15.0 mph - N/A   Unknown
10:30 AM 53.6 °F - 33.8 °F 47% 29.77 in 6.2 mi NNW 16.1 mph - N/A   Unknown
11:00 AM 55 °F - 34 °F 33% 29.78 in 11 mi NNW 13.8 mph - -   Clear
11:00 AM 55.4 °F - 33.8 °F 44% 29.77 in 6.2 mi NNW 13.8 mph - N/A   Unknown
11:30 AM 57.2 °F - 35.6 °F 44% 29.77 in 6.2 mi NNW 13.8 mph - N/A   Unknown
12:00 PM 58 °F - 37 °F 33% 29.77 in 12 mi NNW 13.8 mph - -   Clear
12:00 PM 57.2 °F - 37.4 °F 48% 29.77 in 6.2 mi NNW 13.8 mph - N/A   Unknown
12:30 PM 59.0 °F - 35.6 °F 42% 29.74 in 6.2 mi NNW 13.8 mph - N/A   Unknown
1:00 PM 60 °F - 34 °F 25% 29.77 in 12 mi NNW 16.1 mph - -   Clear
1:00 PM 60.8 °F - 33.8 °F 36% 29.74 in 6.2 mi NNW 16.1 mph - N/A   Unknown
1:30 PM 60.8 °F - 32.0 °F 34% 29.74 in 6.2 mi NNW 17.3 mph - N/A   Unknown
2:00 PM 61 °F - 34 °F 24% 29.76 in 34 mi NNW 12.7 mph - -   Clear
2:00 PM 60.8 °F - 33.8 °F 36% 29.74 in 6.2 mi NNW 12.7 mph - N/A   Unknown
2:30 PM 62.6 °F - 33.8 °F 34% 29.74 in 6.2 mi NW 11.5 mph - N/A   Unknown
3:00 PM 62 °F - 33 °F 22% 29.76 in 25 mi WNW 11.5 mph - -   Clear
3:00 PM 62.6 °F - 32.0 °F 32% 29.74 in 6.2 mi WNW 11.5 mph - N/A   Unknown
3:30 PM 62.6 °F - 30.2 °F 30% 29.74 in 6.2 mi NW 10.4 mph - N/A   Unknown
4:00 PM 63 °F - 31 °F 18% 29.75 in 28 mi NNW 10.4 mph - -   Clear
4:00 PM 62.6 °F - 30.2 °F 30% 29.74 in 6.2 mi NNW 10.4 mph - N/A   Unknown
4:30 PM 62.6 °F - 35.6 °F 37% 29.74 in 6.2 mi WNW 8.1 mph - N/A   Unknown
5:00 PM 62 °F - 33 °F 22% 29.75 in 22 mi West 13.8 mph - -   Clear
5:00 PM 62.6 °F - 33.8 °F 34% 29.74 in 6.2 mi West 13.8 mph - N/A   Unknown
5:30 PM 60.8 °F - 33.8 °F 36% 29.74 in 6.2 mi West 13.8 mph - N/A   Unknown
6:00 PM 58 °F - 34 °F 28% 29.77 in 28 mi West 13.8 mph - -   Clear
6:00 PM 59.0 °F - 33.8 °F 39% 29.77 in 6.2 mi West 13.8 mph - N/A   Unknown
6:30 PM 57.2 °F - 33.8 °F 41% 29.77 in 6.2 mi West 13.8 mph - N/A   Unknown
7:00 PM 54 °F - 36 °F 38% 29.79 in 37 mi West 10.4 mph - -   Clear
7:00 PM 53.6 °F - 35.6 °F 51% 29.77 in 6.2 mi West 10.4 mph - N/A   Unknown
7:30 PM 51.8 °F - 37.4 °F 58% 29.77 in 6.2 mi West 9.2 mph - N/A   Unknown
8:00 PM 51 °F - 38 °F 52% 29.81 in 31 mi West 6.9 mph - -   Clear
8:00 PM 50.0 °F - 39.2 °F 66% 29.80 in 6.2 mi West 6.9 mph - N/A   Unknown
8:30 PM 48.2 °F - 39.2 °F 71% 29.80 in 6.2 mi West 6.9 mph - N/A   Unknown
9:00 PM 48 °F - 40 °F 64% 29.83 in 22 mi NW 4.6 mph - -   Clear
9:00 PM 48.2 °F - 39.2 °F 71% 29.83 in 6.2 mi NW 4.6 mph - N/A   Unknown
9:30 PM 46.4 °F - 39.2 °F 76% 29.83 in 6.2 mi Calm Calm - N/A   Unknown
10:00 PM 47 °F - 39 °F 67% 29.85 in 22 mi SW 2.3 mph - -   Clear
10:00 PM 46.4 °F - 39.2 °F 76% 29.83 in 6.2 mi SW 2.3 mph - N/A   Unknown
10:30 PM 46.4 °F 45.2 °F 39.2 °F 76% 29.83 in 6.2 mi SSW 3.5 mph - N/A   Unknown
11:00 PM 46 °F - 39 °F 68% 29.86 in 22 mi Calm Calm - -   Clear
11:00 PM 46.4 °F - 39.2 °F 76% 29.86 in 6.2 mi Calm Calm - N/A   Unknown
11:30 PM 44.6 °F 43.1 °F 39.2 °F 81% 29.86 in 6.2 mi WSW 3.5 mph - N/A   Unknown